sensor_id;sensor_type;location;lat;lon;timestamp;temperature;humidity
1429;DHT22;708;51.442;7.016;2023-03-01T00:01:26;1.40;99.90
1429;DHT22;708;51.442;7.016;2023-03-01T00:03:54;1.40;99.90
1429;DHT22;708;51.442;7.016;2023-03-01T00:06:21;1.40;99.90
1429;DHT22;708;51.442;7.016;2023-03-01T00:08:50;1.40;99.90
1429;DHT22;708;51.442;7.016;2023-03-01T00:11:18;1.40;99.90
1429;DHT22;708;51.442;7.016;2023-03-01T00:13:47;1.40;99.90
1429;DHT22;708;51.442;7.016;2023-03-01T00:16:16;1.30;99.90
1429;DHT22;708;51.442;7.016;2023-03-01T00:21:13;1.30;99.90
1429;DHT22;708;51.442;7.016;2023-03-01T00:23:40;1.30;99.90
1429;DHT22;708;51.442;7.016;2023-03-01T00:26:12;1.30;99.90
1429;DHT22;708;51.442;7.016;2023-03-01T00:28:39;1.20;99.90
1429;DHT22;708;51.442;7.016;2023-03-01T00:31:08;1.20;99.90
1429;DHT22;708;51.442;7.016;2023-03-01T00:33:35;1.10;99.90
1429;DHT22;708;51.442;7.016;2023-03-01T00:36:02;1.20;1.00
1429;DHT22;708;51.442;7.016;2023-03-01T00:38:30;1.10;1.00
1429;DHT22;708;51.442;7.016;2023-03-01T00:41:03;1.10;1.00
1429;DHT22;708;51.442;7.016;2023-03-01T00:43:31;1.10;1.00
1429;DHT22;708;51.442;7.016;2023-03-01T00:46:02;1.10;1.00
1429;DHT22;708;51.442;7.016;2023-03-01T00:48:28;1.10;1.00
1429;DHT22;708;51.442;7.016;2023-03-01T00:50:55;1.00;1.00
1429;DHT22;708;51.442;7.016;2023-03-01T00:53:22;1.00;1.00
1429;DHT22;708;51.442;7.016;2023-03-01T00:55:49;1.00;1.00
1429;DHT22;708;51.442;7.016;2023-03-01T00:58:15;0.90;1.00
1429;DHT22;708;51.442;7.016;2023-03-01T01:00:43;0.90;1.00
1429;DHT22;708;51.442;7.016;2023-03-01T01:03:10;0.90;1.00
1429;DHT22;708;51.442;7.016;2023-03-01T01:05:37;0.90;1.00
1429;DHT22;708;51.442;7.016;2023-03-01T01:08:03;0.90;1.00
1429;DHT22;708;51.442;7.016;2023-03-01T01:10:33;0.90;1.00
1429;DHT22;708;51.442;7.016;2023-03-01T01:12:59;0.90;1.00
1429;DHT22;708;51.442;7.016;2023-03-01T01:15:26;0.90;1.00
1429;DHT22;708;51.442;7.016;2023-03-01T01:17:54;0.90;1.00
1429;DHT22;708;51.442;7.016;2023-03-01T01:20:21;0.90;1.00
1429;DHT22;708;51.442;7.016;2023-03-01T01:22:48;0.90;1.00
1429;DHT22;708;51.442;7.016;2023-03-01T01:25:15;0.80;1.00
1429;DHT22;708;51.442;7.016;2023-03-01T01:27:41;0.80;1.00
1429;DHT22;708;51.442;7.016;2023-03-01T01:30:09;0.80;1.00
1429;DHT22;708;51.442;7.016;2023-03-01T01:32:36;0.80;1.00
1429;DHT22;708;51.442;7.016;2023-03-01T01:35:04;0.70;1.00
1429;DHT22;708;51.442;7.016;2023-03-01T01:37:31;0.70;1.00
1429;DHT22;708;51.442;7.016;2023-03-01T01:39:59;0.70;1.00
1429;DHT22;708;51.442;7.016;2023-03-01T01:42:27;0.70;1.00
1429;DHT22;708;51.442;7.016;2023-03-01T01:45:32;0.70;1.00
1429;DHT22;708;51.442;7.016;2023-03-01T01:48:02;0.70;1.00
1429;DHT22;708;51.442;7.016;2023-03-01T01:50:32;0.60;1.00
1429;DHT22;708;51.442;7.016;2023-03-01T01:53:06;0.60;1.00
1429;DHT22;708;51.442;7.016;2023-03-01T01:55:36;0.60;39.00
1429;DHT22;708;51.442;7.016;2023-03-01T01:58:05;0.60;57.90
1429;DHT22;708;51.442;7.016;2023-03-01T02:00:37;0.60;31.80
1429;DHT22;708;51.442;7.016;2023-03-01T02:03:08;0.60;36.00
1429;DHT22;708;51.442;7.016;2023-03-01T02:05:42;0.50;58.70
1429;DHT22;708;51.442;7.016;2023-03-01T02:08:11;0.50;97.60
1429;DHT22;708;51.442;7.016;2023-03-01T02:10:39;0.50;95.30
1429;DHT22;708;51.442;7.016;2023-03-01T02:13:07;0.40;99.90
1429;DHT22;708;51.442;7.016;2023-03-01T02:15:35;0.40;99.90
1429;DHT22;708;51.442;7.016;2023-03-01T02:18:04;0.40;99.90
1429;DHT22;708;51.442;7.016;2023-03-01T02:20:35;0.30;99.90
1429;DHT22;708;51.442;7.016;2023-03-01T02:23:05;0.40;99.90
1429;DHT22;708;51.442;7.016;2023-03-01T02:25:39;0.30;99.90
1429;DHT22;708;51.442;7.016;2023-03-01T02:30:39;0.20;99.90
1429;DHT22;708;51.442;7.016;2023-03-01T02:33:28;0.20;99.90
1429;DHT22;708;51.442;7.016;2023-03-01T02:35:54;0.20;99.90
1429;DHT22;708;51.442;7.016;2023-03-01T02:38:23;0.20;99.90
1429;DHT22;708;51.442;7.016;2023-03-01T02:40:51;0.20;99.90
1429;DHT22;708;51.442;7.016;2023-03-01T02:43:19;0.20;99.90
1429;DHT22;708;51.442;7.016;2023-03-01T02:45:51;0.20;99.90
1429;DHT22;708;51.442;7.016;2023-03-01T02:48:19;0.20;99.90
1429;DHT22;708;51.442;7.016;2023-03-01T02:51:01;0.20;99.90
1429;DHT22;708;51.442;7.016;2023-03-01T02:53:38;0.20;99.90
1429;DHT22;708;51.442;7.016;2023-03-01T02:56:08;0.20;99.90
1429;DHT22;708;51.442;7.016;2023-03-01T02:58:38;0.20;99.90
1429;DHT22;708;51.442;7.016;2023-03-01T03:01:12;0.20;99.90
1429;DHT22;708;51.442;7.016;2023-03-01T03:03:41;0.20;99.90
1429;DHT22;708;51.442;7.016;2023-03-01T03:06:08;0.10;99.90
1429;DHT22;708;51.442;7.016;2023-03-01T03:08:35;0.10;99.90
1429;DHT22;708;51.442;7.016;2023-03-01T03:11:02;0.10;1.00
1429;DHT22;708;51.442;7.016;2023-03-01T03:13:29;0.10;1.00
1429;DHT22;708;51.442;7.016;2023-03-01T03:15:56;0.10;1.00
1429;DHT22;708;51.442;7.016;2023-03-01T03:18:24;0.10;1.00
1429;DHT22;708;51.442;7.016;2023-03-01T03:20:52;0.00;1.00
1429;DHT22;708;51.442;7.016;2023-03-01T03:23:20;0.00;1.00
1429;DHT22;708;51.442;7.016;2023-03-01T03:25:48;0.10;1.00
1429;DHT22;708;51.442;7.016;2023-03-01T03:28:15;0.00;1.00
1429;DHT22;708;51.442;7.016;2023-03-01T03:30:43;0.00;1.00
1429;DHT22;708;51.442;7.016;2023-03-01T03:33:11;0.00;1.00
1429;DHT22;708;51.442;7.016;2023-03-01T03:35:41;0.00;1.00
1429;DHT22;708;51.442;7.016;2023-03-01T03:38:10;0.00;1.00
1429;DHT22;708;51.442;7.016;2023-03-01T03:40:42;-0.10;1.00
1429;DHT22;708;51.442;7.016;2023-03-01T03:43:14;-0.10;1.00
1429;DHT22;708;51.442;7.016;2023-03-01T03:45:41;-0.10;1.00
1429;DHT22;708;51.442;7.016;2023-03-01T03:48:10;-0.10;1.00
1429;DHT22;708;51.442;7.016;2023-03-01T03:50:38;-0.10;31.50
1429;DHT22;708;51.442;7.016;2023-03-01T03:53:07;-0.10;55.00
1429;DHT22;708;51.442;7.016;2023-03-01T03:55:34;-0.10;10.30
1429;DHT22;708;51.442;7.016;2023-03-01T03:58:05;-0.10;6.80
1429;DHT22;708;51.442;7.016;2023-03-01T04:00:35;-0.10;1.00
1429;DHT22;708;51.442;7.016;2023-03-01T04:03:02;-0.10;37.50
1429;DHT22;708;51.442;7.016;2023-03-01T04:05:29;-0.10;1.00
1429;DHT22;708;51.442;7.016;2023-03-01T04:07:58;-0.20;1.00
1429;DHT22;708;51.442;7.016;2023-03-01T04:10:35;-0.20;83.40
1429;DHT22;708;51.442;7.016;2023-03-01T04:13:02;-0.20;49.20
1429;DHT22;708;51.442;7.016;2023-03-01T04:15:31;-0.20;37.90
1429;DHT22;708;51.442;7.016;2023-03-01T04:17:58;-0.20;96.90
1429;DHT22;708;51.442;7.016;2023-03-01T04:20:27;-0.20;99.90
1429;DHT22;708;51.442;7.016;2023-03-01T04:22:59;-0.20;99.90
1429;DHT22;708;51.442;7.016;2023-03-01T04:25:34;-0.20;99.90
1429;DHT22;708;51.442;7.016;2023-03-01T04:28:00;-0.20;99.90
1429;DHT22;708;51.442;7.016;2023-03-01T04:30:27;-0.20;99.90
1429;DHT22;708;51.442;7.016;2023-03-01T04:32:54;-0.20;99.90
1429;DHT22;708;51.442;7.016;2023-03-01T04:35:20;-0.30;99.90
1429;DHT22;708;51.442;7.016;2023-03-01T04:37:47;-0.30;99.90
1429;DHT22;708;51.442;7.016;2023-03-01T04:40:15;-0.30;99.90
1429;DHT22;708;51.442;7.016;2023-03-01T04:42:42;-0.30;99.90
1429;DHT22;708;51.442;7.016;2023-03-01T04:45:10;-0.30;99.90
1429;DHT22;708;51.442;7.016;2023-03-01T04:47:39;-0.40;99.90
1429;DHT22;708;51.442;7.016;2023-03-01T04:50:07;-0.40;99.90
1429;DHT22;708;51.442;7.016;2023-03-01T04:52:34;-0.40;99.90
1429;DHT22;708;51.442;7.016;2023-03-01T04:55:01;-0.50;99.90
1429;DHT22;708;51.442;7.016;2023-03-01T04:57:30;-0.50;1.00
1429;DHT22;708;51.442;7.016;2023-03-01T04:59:57;-0.50;1.00
1429;DHT22;708;51.442;7.016;2023-03-01T05:02:24;-0.50;1.00
1429;DHT22;708;51.442;7.016;2023-03-01T05:04:51;-0.60;99.90
1429;DHT22;708;51.442;7.016;2023-03-01T05:07:18;-0.60;99.90
1429;DHT22;708;51.442;7.016;2023-03-01T05:09:45;-0.60;99.90
1429;DHT22;708;51.442;7.016;2023-03-01T05:12:12;-0.60;99.90
1429;DHT22;708;51.442;7.016;2023-03-01T05:14:41;-0.70;1.00
1429;DHT22;708;51.442;7.016;2023-03-01T05:17:08;-0.60;1.00
1429;DHT22;708;51.442;7.016;2023-03-01T05:19:34;-0.70;1.00
1429;DHT22;708;51.442;7.016;2023-03-01T05:22:01;-0.70;74.40
1429;DHT22;708;51.442;7.016;2023-03-01T05:24:31;-0.70;99.90
1429;DHT22;708;51.442;7.016;2023-03-01T05:26:57;-0.70;99.90
1429;DHT22;708;51.442;7.016;2023-03-01T05:29:25;-0.80;99.90
1429;DHT22;708;51.442;7.016;2023-03-01T05:31:55;-0.80;99.90
1429;DHT22;708;51.442;7.016;2023-03-01T05:34:23;-0.80;99.90
1429;DHT22;708;51.442;7.016;2023-03-01T05:36:51;-0.70;99.90
1429;DHT22;708;51.442;7.016;2023-03-01T05:39:19;-0.80;99.90
1429;DHT22;708;51.442;7.016;2023-03-01T05:41:47;-0.80;99.90
1429;DHT22;708;51.442;7.016;2023-03-01T05:44:14;-0.80;99.90
1429;DHT22;708;51.442;7.016;2023-03-01T05:46:41;-0.80;99.60
1429;DHT22;708;51.442;7.016;2023-03-01T05:49:09;-0.80;99.90
1429;DHT22;708;51.442;7.016;2023-03-01T05:54:03;-0.80;1.00
1429;DHT22;708;51.442;7.016;2023-03-01T05:56:32;-0.80;1.00
1429;DHT22;708;51.442;7.016;2023-03-01T05:58:59;-0.70;99.90
1429;DHT22;708;51.442;7.016;2023-03-01T06:01:26;-0.70;1.00
1429;DHT22;708;51.442;7.016;2023-03-01T06:03:53;-0.70;99.90
1429;DHT22;708;51.442;7.016;2023-03-01T06:06:21;-0.70;99.90
1429;DHT22;708;51.442;7.016;2023-03-01T06:08:47;-0.70;1.00
1429;DHT22;708;51.442;7.016;2023-03-01T06:11:14;-0.70;1.00
1429;DHT22;708;51.442;7.016;2023-03-01T06:13:41;-0.70;99.90
1429;DHT22;708;51.442;7.016;2023-03-01T06:16:08;-0.70;99.90
1429;DHT22;708;51.442;7.016;2023-03-01T06:18:35;-0.60;99.90
1429;DHT22;708;51.442;7.016;2023-03-01T06:21:03;-0.60;99.90
1429;DHT22;708;51.442;7.016;2023-03-01T06:23:31;-0.60;99.90
1429;DHT22;708;51.442;7.016;2023-03-01T06:25:58;-0.60;99.90
1429;DHT22;708;51.442;7.016;2023-03-01T06:28:25;-0.60;99.90
1429;DHT22;708;51.442;7.016;2023-03-01T06:30:52;-0.60;99.90
1429;DHT22;708;51.442;7.016;2023-03-01T06:33:19;-0.60;1.00
1429;DHT22;708;51.442;7.016;2023-03-01T06:35:48;-0.60;1.00
1429;DHT22;708;51.442;7.016;2023-03-01T06:38:15;-0.60;1.00
1429;DHT22;708;51.442;7.016;2023-03-01T06:40:51;-0.50;99.90
1429;DHT22;708;51.442;7.016;2023-03-01T06:43:18;-0.50;99.90
1429;DHT22;708;51.442;7.016;2023-03-01T06:45:45;-0.50;1.00
1429;DHT22;708;51.442;7.016;2023-03-01T06:48:11;-0.50;1.00
1429;DHT22;708;51.442;7.016;2023-03-01T06:50:38;-0.40;1.00
1429;DHT22;708;51.442;7.016;2023-03-01T06:53:05;-0.40;1.00
1429;DHT22;708;51.442;7.016;2023-03-01T06:55:32;-0.40;1.00
1429;DHT22;708;51.442;7.016;2023-03-01T06:58:01;-0.30;1.00
1429;DHT22;708;51.442;7.016;2023-03-01T07:00:28;-0.30;1.00
1429;DHT22;708;51.442;7.016;2023-03-01T07:02:58;0.00;1.00
1429;DHT22;708;51.442;7.016;2023-03-01T07:05:25;0.40;1.00
1429;DHT22;708;51.442;7.016;2023-03-01T07:07:53;1.10;99.90
1429;DHT22;708;51.442;7.016;2023-03-01T07:10:20;1.90;99.90
1429;DHT22;708;51.442;7.016;2023-03-01T07:12:47;2.70;99.90
1429;DHT22;708;51.442;7.016;2023-03-01T07:15:15;3.40;99.90
1429;DHT22;708;51.442;7.016;2023-03-01T07:17:42;4.20;99.90
1429;DHT22;708;51.442;7.016;2023-03-01T07:20:11;4.90;99.90
1429;DHT22;708;51.442;7.016;2023-03-01T07:22:40;5.40;99.90
1429;DHT22;708;51.442;7.016;2023-03-01T07:25:07;6.00;99.90
1429;DHT22;708;51.442;7.016;2023-03-01T07:27:34;6.40;99.90
1429;DHT22;708;51.442;7.016;2023-03-01T07:30:01;6.90;99.90
1429;DHT22;708;51.442;7.016;2023-03-01T07:32:30;7.40;99.90
1429;DHT22;708;51.442;7.016;2023-03-01T07:34:56;8.10;99.90
1429;DHT22;708;51.442;7.016;2023-03-01T07:37:26;8.50;99.90
1429;DHT22;708;51.442;7.016;2023-03-01T07:39:53;8.90;99.90
1429;DHT22;708;51.442;7.016;2023-03-01T07:42:25;9.50;99.90
1429;DHT22;708;51.442;7.016;2023-03-01T07:44:51;10.10;99.90
1429;DHT22;708;51.442;7.016;2023-03-01T07:47:18;10.10;99.90
1429;DHT22;708;51.442;7.016;2023-03-01T07:49:46;10.30;99.90
1429;DHT22;708;51.442;7.016;2023-03-01T07:52:13;10.60;99.90
1429;DHT22;708;51.442;7.016;2023-03-01T07:54:42;10.60;99.90
1429;DHT22;708;51.442;7.016;2023-03-01T07:57:10;10.60;98.70
1429;DHT22;708;51.442;7.016;2023-03-01T07:59:36;10.30;98.30
1429;DHT22;708;51.442;7.016;2023-03-01T08:02:03;9.90;98.30
1429;DHT22;708;51.442;7.016;2023-03-01T08:04:30;9.80;97.70
1429;DHT22;708;51.442;7.016;2023-03-01T08:06:59;9.50;97.30
1429;DHT22;708;51.442;7.016;2023-03-01T08:09:26;9.60;97.40
1429;DHT22;708;51.442;7.016;2023-03-01T08:11:53;9.30;97.50
1429;DHT22;708;51.442;7.016;2023-03-01T08:14:20;9.70;96.90
1429;DHT22;708;51.442;7.016;2023-03-01T08:16:49;10.00;96.20
1429;DHT22;708;51.442;7.016;2023-03-01T08:19:16;10.10;95.70
1429;DHT22;708;51.442;7.016;2023-03-01T08:21:42;9.80;96.20
1429;DHT22;708;51.442;7.016;2023-03-01T08:24:11;9.90;95.50
1429;DHT22;708;51.442;7.016;2023-03-01T08:26:39;9.90;95.40
1429;DHT22;708;51.442;7.016;2023-03-01T08:29:06;10.00;94.90
1429;DHT22;708;51.442;7.016;2023-03-01T08:31:35;10.00;94.10
1429;DHT22;708;51.442;7.016;2023-03-01T08:34:04;9.90;95.20
1429;DHT22;708;51.442;7.016;2023-03-01T08:36:36;10.40;94.40
1429;DHT22;708;51.442;7.016;2023-03-01T08:39:04;10.40;93.40
1429;DHT22;708;51.442;7.016;2023-03-01T08:41:32;9.90;93.80
1429;DHT22;708;51.442;7.016;2023-03-01T08:43:59;9.90;93.60
1429;DHT22;708;51.442;7.016;2023-03-01T08:46:26;10.00;93.50
1429;DHT22;708;51.442;7.016;2023-03-01T08:48:53;9.80;93.20
1429;DHT22;708;51.442;7.016;2023-03-01T08:51:20;9.60;93.40
1429;DHT22;708;51.442;7.016;2023-03-01T08:53:48;9.60;93.50
1429;DHT22;708;51.442;7.016;2023-03-01T08:56:16;9.50;93.30
1429;DHT22;708;51.442;7.016;2023-03-01T08:58:45;9.60;93.50
1429;DHT22;708;51.442;7.016;2023-03-01T09:01:14;9.80;93.40
1429;DHT22;708;51.442;7.016;2023-03-01T09:03:41;10.30;92.70
1429;DHT22;708;51.442;7.016;2023-03-01T09:06:08;10.40;92.20
1429;DHT22;708;51.442;7.016;2023-03-01T09:08:35;11.10;91.80
1429;DHT22;708;51.442;7.016;2023-03-01T09:11:03;11.70;91.80
1429;DHT22;708;51.442;7.016;2023-03-01T09:13:30;12.40;91.30
1429;DHT22;708;51.442;7.016;2023-03-01T09:16:00;13.10;91.30
1429;DHT22;708;51.442;7.016;2023-03-01T09:18:27;13.20;91.40
1429;DHT22;708;51.442;7.016;2023-03-01T09:21:00;13.10;90.50
1429;DHT22;708;51.442;7.016;2023-03-01T09:23:26;13.30;90.00
1429;DHT22;708;51.442;7.016;2023-03-01T09:25:53;13.30;89.70
1429;DHT22;708;51.442;7.016;2023-03-01T09:28:20;13.30;88.30
1429;DHT22;708;51.442;7.016;2023-03-01T09:30:48;13.20;87.80
1429;DHT22;708;51.442;7.016;2023-03-01T09:33:16;12.60;85.50
1429;DHT22;708;51.442;7.016;2023-03-01T09:35:43;12.20;85.30
1429;DHT22;708;51.442;7.016;2023-03-01T09:38:13;12.40;85.00
1429;DHT22;708;51.442;7.016;2023-03-01T09:40:42;12.60;84.20
1429;DHT22;708;51.442;7.016;2023-03-01T09:43:17;12.00;84.60
1429;DHT22;708;51.442;7.016;2023-03-01T09:45:45;11.50;83.80
1429;DHT22;708;51.442;7.016;2023-03-01T09:48:18;10.70;84.40
1429;DHT22;708;51.442;7.016;2023-03-01T09:50:47;10.40;84.50
1429;DHT22;708;51.442;7.016;2023-03-01T09:53:16;10.20;84.30
1429;DHT22;708;51.442;7.016;2023-03-01T09:55:45;9.90;85.20
1429;DHT22;708;51.442;7.016;2023-03-01T09:58:32;9.80;85.20
1429;DHT22;708;51.442;7.016;2023-03-01T10:01:10;9.50;84.90
1429;DHT22;708;51.442;7.016;2023-03-01T10:03:43;9.60;85.90
1429;DHT22;708;51.442;7.016;2023-03-01T10:06:14;9.50;72.80
1429;DHT22;708;51.442;7.016;2023-03-01T10:08:45;9.40;85.90
1429;DHT22;708;51.442;7.016;2023-03-01T10:11:20;8.90;84.50
1429;DHT22;708;51.442;7.016;2023-03-01T10:13:52;8.50;85.20
1429;DHT22;708;51.442;7.016;2023-03-01T10:16:26;7.80;86.00
1429;DHT22;708;51.442;7.016;2023-03-01T10:18:59;7.10;86.20
1429;DHT22;708;51.442;7.016;2023-03-01T10:21:28;6.40;87.60
1429;DHT22;708;51.442;7.016;2023-03-01T10:24:04;6.00;89.80
1429;DHT22;708;51.442;7.016;2023-03-01T10:26:44;5.70;91.00
1429;DHT22;708;51.442;7.016;2023-03-01T10:29:14;5.80;92.40
1429;DHT22;708;51.442;7.016;2023-03-01T10:31:43;6.00;92.00
1429;DHT22;708;51.442;7.016;2023-03-01T10:34:14;6.00;92.50
1429;DHT22;708;51.442;7.016;2023-03-01T10:36:43;6.00;92.40
1429;DHT22;708;51.442;7.016;2023-03-01T10:39:20;6.00;92.80
1429;DHT22;708;51.442;7.016;2023-03-01T10:41:56;6.00;91.90
1429;DHT22;708;51.442;7.016;2023-03-01T10:44:41;5.60;91.40
1429;DHT22;708;51.442;7.016;2023-03-01T10:47:14;5.40;92.60
1429;DHT22;708;51.442;7.016;2023-03-01T10:49:53;5.30;92.50
1429;DHT22;708;51.442;7.016;2023-03-01T10:52:22;5.40;95.10
1429;DHT22;708;51.442;7.016;2023-03-01T10:54:54;5.50;93.20
1429;DHT22;708;51.442;7.016;2023-03-01T10:57:33;5.60;92.70
1429;DHT22;708;51.442;7.016;2023-03-01T11:00:15;5.50;99.00
1429;DHT22;708;51.442;7.016;2023-03-01T11:02:47;5.40;93.30
1429;DHT22;708;51.442;7.016;2023-03-01T11:05:20;5.50;93.40
1429;DHT22;708;51.442;7.016;2023-03-01T11:07:50;5.50;93.20
1429;DHT22;708;51.442;7.016;2023-03-01T11:10:19;5.40;93.30
1429;DHT22;708;51.442;7.016;2023-03-01T11:12:46;5.40;93.30
1429;DHT22;708;51.442;7.016;2023-03-01T11:15:25;5.40;92.90
1429;DHT22;708;51.442;7.016;2023-03-01T11:17:52;5.40;92.90
1429;DHT22;708;51.442;7.016;2023-03-01T11:20:25;5.50;93.30
1429;DHT22;708;51.442;7.016;2023-03-01T11:22:55;5.50;93.00
1429;DHT22;708;51.442;7.016;2023-03-01T11:25:25;5.40;92.90
1429;DHT22;708;51.442;7.016;2023-03-01T11:27:53;5.40;93.30
1429;DHT22;708;51.442;7.016;2023-03-01T11:30:24;5.50;93.90
1429;DHT22;708;51.442;7.016;2023-03-01T11:33:01;5.60;93.50
1429;DHT22;708;51.442;7.016;2023-03-01T11:35:32;5.70;93.70
1429;DHT22;708;51.442;7.016;2023-03-01T11:38:14;5.80;93.40
1429;DHT22;708;51.442;7.016;2023-03-01T11:40:46;6.00;93.40
1429;DHT22;708;51.442;7.016;2023-03-01T11:43:19;6.10;93.30
1429;DHT22;708;51.442;7.016;2023-03-01T11:45:58;6.20;93.30
1429;DHT22;708;51.442;7.016;2023-03-01T11:48:42;6.30;93.20
1429;DHT22;708;51.442;7.016;2023-03-01T11:51:20;6.50;92.80
1429;DHT22;708;51.442;7.016;2023-03-01T11:54:06;6.60;92.40
1429;DHT22;708;51.442;7.016;2023-03-01T11:56:38;6.70;92.50
1429;DHT22;708;51.442;7.016;2023-03-01T12:02:27;6.90;92.40
1429;DHT22;708;51.442;7.016;2023-03-01T12:05:16;7.00;91.50
1429;DHT22;708;51.442;7.016;2023-03-01T12:07:52;7.00;92.00
1429;DHT22;708;51.442;7.016;2023-03-01T12:10:27;7.10;91.40
1429;DHT22;708;51.442;7.016;2023-03-01T12:13:05;7.10;91.50
1429;DHT22;708;51.442;7.016;2023-03-01T12:15:53;7.00;91.50
1429;DHT22;708;51.442;7.016;2023-03-01T12:18:44;6.80;91.50
1429;DHT22;708;51.442;7.016;2023-03-01T12:21:21;6.90;91.50
1429;DHT22;708;51.442;7.016;2023-03-01T12:24:05;7.00;91.60
1429;DHT22;708;51.442;7.016;2023-03-01T12:26:34;7.00;91.00
1429;DHT22;708;51.442;7.016;2023-03-01T12:29:24;6.90;91.00
1429;DHT22;708;51.442;7.016;2023-03-01T12:32:15;6.90;90.90
1429;DHT22;708;51.442;7.016;2023-03-01T12:37:55;6.80;91.30
1429;DHT22;708;51.442;7.016;2023-03-01T12:40:51;6.80;91.40
1429;DHT22;708;51.442;7.016;2023-03-01T12:43:30;6.90;91.50
1429;DHT22;708;51.442;7.016;2023-03-01T12:46:13;7.20;90.90
1429;DHT22;708;51.442;7.016;2023-03-01T12:48:52;7.30;91.20
1429;DHT22;708;51.442;7.016;2023-03-01T12:51:24;7.40;90.50
1429;DHT22;708;51.442;7.016;2023-03-01T12:53:53;7.40;90.00
1429;DHT22;708;51.442;7.016;2023-03-01T12:56:25;7.40;90.30
1429;DHT22;708;51.442;7.016;2023-03-01T12:59:00;7.50;90.30
1429;DHT22;708;51.442;7.016;2023-03-01T13:01:35;7.50;90.20
1429;DHT22;708;51.442;7.016;2023-03-01T13:04:12;7.50;90.40
1429;DHT22;708;51.442;7.016;2023-03-01T13:06:44;7.40;90.00
1429;DHT22;708;51.442;7.016;2023-03-01T13:09:20;7.30;89.50
1429;DHT22;708;51.442;7.016;2023-03-01T13:11:51;7.40;90.00
1429;DHT22;708;51.442;7.016;2023-03-01T13:14:36;7.40;90.00
1429;DHT22;708;51.442;7.016;2023-03-01T13:17:03;7.50;90.20
1429;DHT22;708;51.442;7.016;2023-03-01T13:19:30;7.50;90.10
1429;DHT22;708;51.442;7.016;2023-03-01T13:21:58;7.50;90.70
1429;DHT22;708;51.442;7.016;2023-03-01T13:24:33;7.50;89.60
1429;DHT22;708;51.442;7.016;2023-03-01T13:27:22;7.40;90.10
1429;DHT22;708;51.442;7.016;2023-03-01T13:29:56;7.50;88.80
1429;DHT22;708;51.442;7.016;2023-03-01T13:32:25;7.50;90.20
1429;DHT22;708;51.442;7.016;2023-03-01T13:34:58;7.40;90.10
1429;DHT22;708;51.442;7.016;2023-03-01T13:37:28;7.40;89.80
1429;DHT22;708;51.442;7.016;2023-03-01T13:40:01;7.40;89.60
1429;DHT22;708;51.442;7.016;2023-03-01T13:42:41;7.40;90.00
1429;DHT22;708;51.442;7.016;2023-03-01T13:45:19;7.40;95.80
1429;DHT22;708;51.442;7.016;2023-03-01T13:47:49;7.40;89.40
1429;DHT22;708;51.442;7.016;2023-03-01T13:50:19;7.30;90.00
1429;DHT22;708;51.442;7.016;2023-03-01T13:52:52;7.50;90.00
1429;DHT22;708;51.442;7.016;2023-03-01T13:55:23;7.50;88.80
1429;DHT22;708;51.442;7.016;2023-03-01T13:57:54;7.50;89.00
1429;DHT22;708;51.442;7.016;2023-03-01T14:00:32;7.40;89.40
1429;DHT22;708;51.442;7.016;2023-03-01T14:03:10;7.40;89.20
1429;DHT22;708;51.442;7.016;2023-03-01T14:05:38;7.60;91.50
1429;DHT22;708;51.442;7.016;2023-03-01T14:08:19;7.60;88.60
1429;DHT22;708;51.442;7.016;2023-03-01T14:11:03;7.40;95.40
1429;DHT22;708;51.442;7.016;2023-03-01T14:13:47;7.20;88.40
1429;DHT22;708;51.442;7.016;2023-03-01T14:16:28;7.30;88.30
1429;DHT22;708;51.442;7.016;2023-03-01T14:19:09;7.40;88.30
1429;DHT22;708;51.442;7.016;2023-03-01T14:21:37;7.50;89.30
1429;DHT22;708;51.442;7.016;2023-03-01T14:24:04;7.50;88.70
1429;DHT22;708;51.442;7.016;2023-03-01T14:26:33;7.50;88.90
1429;DHT22;708;51.442;7.016;2023-03-01T14:29:03;7.60;90.00
1429;DHT22;708;51.442;7.016;2023-03-01T14:31:34;7.60;89.60
1429;DHT22;708;51.442;7.016;2023-03-01T14:34:01;7.70;89.60
1429;DHT22;708;51.442;7.016;2023-03-01T14:36:30;7.70;89.10
1429;DHT22;708;51.442;7.016;2023-03-01T14:38:57;7.70;88.50
1429;DHT22;708;51.442;7.016;2023-03-01T14:41:32;7.70;88.40
1429;DHT22;708;51.442;7.016;2023-03-01T14:44:04;7.60;89.00
1429;DHT22;708;51.442;7.016;2023-03-01T14:46:34;7.50;88.30
1429;DHT22;708;51.442;7.016;2023-03-01T14:49:04;7.60;88.40
1429;DHT22;708;51.442;7.016;2023-03-01T14:51:35;7.60;88.40
1429;DHT22;708;51.442;7.016;2023-03-01T14:54:03;7.60;88.20
1429;DHT22;708;51.442;7.016;2023-03-01T14:56:43;7.60;88.20
1429;DHT22;708;51.442;7.016;2023-03-01T14:59:11;7.60;88.50
1429;DHT22;708;51.442;7.016;2023-03-01T15:01:40;7.50;88.50
1429;DHT22;708;51.442;7.016;2023-03-01T15:04:11;7.60;89.50
1429;DHT22;708;51.442;7.016;2023-03-01T15:06:39;7.60;88.50
1429;DHT22;708;51.442;7.016;2023-03-01T15:09:06;7.50;88.20
1429;DHT22;708;51.442;7.016;2023-03-01T15:11:37;7.50;89.10
1429;DHT22;708;51.442;7.016;2023-03-01T15:14:26;7.40;87.40
1429;DHT22;708;51.442;7.016;2023-03-01T15:16:53;7.30;88.50
1429;DHT22;708;51.442;7.016;2023-03-01T15:19:22;7.30;89.10
1429;DHT22;708;51.442;7.016;2023-03-01T15:21:50;7.40;89.50
1429;DHT22;708;51.442;7.016;2023-03-01T15:24:20;7.40;89.70
1429;DHT22;708;51.442;7.016;2023-03-01T15:26:52;7.40;89.40
1429;DHT22;708;51.442;7.016;2023-03-01T15:29:22;7.40;89.10
1429;DHT22;708;51.442;7.016;2023-03-01T15:31:58;7.50;89.80
1429;DHT22;708;51.442;7.016;2023-03-01T15:34:26;7.40;90.20
1429;DHT22;708;51.442;7.016;2023-03-01T15:36:55;7.40;90.20
1429;DHT22;708;51.442;7.016;2023-03-01T15:39:35;7.40;90.40
1429;DHT22;708;51.442;7.016;2023-03-01T15:42:05;7.40;90.20
1429;DHT22;708;51.442;7.016;2023-03-01T15:44:34;7.40;90.50
1429;DHT22;708;51.442;7.016;2023-03-01T15:47:05;7.30;90.00
1429;DHT22;708;51.442;7.016;2023-03-01T15:49:38;7.20;90.10
1429;DHT22;708;51.442;7.016;2023-03-01T15:52:10;7.20;89.40
1429;DHT22;708;51.442;7.016;2023-03-01T15:54:39;7.20;89.20
1429;DHT22;708;51.442;7.016;2023-03-01T15:57:10;7.10;89.80
1429;DHT22;708;51.442;7.016;2023-03-01T15:59:38;7.10;90.20
1429;DHT22;708;51.442;7.016;2023-03-01T16:02:10;7.10;89.80
1429;DHT22;708;51.442;7.016;2023-03-01T16:04:38;7.10;89.40
1429;DHT22;708;51.442;7.016;2023-03-01T16:07:05;7.10;91.90
1429;DHT22;708;51.442;7.016;2023-03-01T16:09:33;7.10;90.00
1429;DHT22;708;51.442;7.016;2023-03-01T16:11:59;7.00;90.20
1429;DHT22;708;51.442;7.016;2023-03-01T16:14:27;7.00;89.90
1429;DHT22;708;51.442;7.016;2023-03-01T16:16:54;7.00;90.00
1429;DHT22;708;51.442;7.016;2023-03-01T16:19:22;7.00;90.70
1429;DHT22;708;51.442;7.016;2023-03-01T16:21:48;7.00;89.80
1429;DHT22;708;51.442;7.016;2023-03-01T16:24:15;7.00;90.00
1429;DHT22;708;51.442;7.016;2023-03-01T16:26:42;7.00;90.20
1429;DHT22;708;51.442;7.016;2023-03-01T16:29:09;7.00;90.10
1429;DHT22;708;51.442;7.016;2023-03-01T16:31:36;7.00;89.80
1429;DHT22;708;51.442;7.016;2023-03-01T16:34:03;7.00;90.60
1429;DHT22;708;51.442;7.016;2023-03-01T16:36:31;6.90;90.10
1429;DHT22;708;51.442;7.016;2023-03-01T16:38:58;6.90;89.80
1429;DHT22;708;51.442;7.016;2023-03-01T16:41:27;6.90;89.60
1429;DHT22;708;51.442;7.016;2023-03-01T16:43:54;6.90;89.10
1429;DHT22;708;51.442;7.016;2023-03-01T16:46:23;6.90;88.50
1429;DHT22;708;51.442;7.016;2023-03-01T16:48:51;6.80;89.70
1429;DHT22;708;51.442;7.016;2023-03-01T16:51:18;6.80;89.20
1429;DHT22;708;51.442;7.016;2023-03-01T16:53:46;6.80;88.90
1429;DHT22;708;51.442;7.016;2023-03-01T16:56:14;6.70;89.60
1429;DHT22;708;51.442;7.016;2023-03-01T16:58:41;6.70;89.30
1429;DHT22;708;51.442;7.016;2023-03-01T17:01:09;6.70;88.80
1429;DHT22;708;51.442;7.016;2023-03-01T17:03:37;6.70;87.50
1429;DHT22;708;51.442;7.016;2023-03-01T17:06:06;6.60;87.90